Time;durP1;ratioP1;P1;durP2;ratioP2;P2;SDS_P1;SDS_P2;PMS_P1;PMS_P2;Temp;Humidity;BMP_temperature;BMP_pressure;BME280_temperature;BME280_humidity;BME280_pressure;Samples;Min_cycle;Max_cycle;Signal;HPM_P1;HPM_P2
2022/05/22 00:01:45;;;;;;;4.00;2.10;;;;;;;12.63;59.36;98599.31;219792;1271;22529;-68
2022/05/22 00:06:48;;;;;;;2.20;1.80;;;;;;;12.63;59.53;98601.34;220672;1272;25244;-68
2022/05/22 00:11:54;;;;;;;2.80;1.80;;;;;;;12.63;59.56;98599.89;219511;1271;456245;-69
2022/05/22 00:16:56;;;;;;;4.00;2.20;;;;;;;12.59;59.69;98596.45;219259;1271;22560;-68
2022/05/22 00:22:09;;;;;;;3.30;1.80;;;;;;;12.50;59.79;98594.52;220120;1271;22707;-68
2022/05/22 00:27:23;;;;;;;3.10;2.00;;;;;;;12.38;60.17;98595.70;219146;1271;25400;-68
2022/05/22 00:32:44;;;;;;;3.50;2.60;;;;;;;12.25;60.40;98597.39;219605;1271;24258;-70
2022/05/22 00:37:48;;;;;;;4.50;2.50;;;;;;;12.11;60.82;98592.66;219191;1272;23556;-69
2022/05/22 00:42:50;;;;;;;4.50;2.50;;;;;;;11.98;61.08;98593.20;219429;1271;22622;-68
2022/05/22 00:47:57;;;;;;;4.00;2.50;;;;;;;11.84;61.12;98591.64;220994;1271;22553;-69
2022/05/22 00:53:00;;;;;;;4.30;1.90;;;;;;;11.70;61.65;98593.92;219356;1271;24344;-69
2022/05/22 00:58:20;;;;;;;3.30;2.00;;;;;;;11.60;62.02;98601.65;219814;1271;22523;-69
2022/05/22 01:03:29;;;;;;;2.50;2.10;;;;;;;11.55;62.11;98597.77;219204;1271;22801;-70
2022/05/22 01:08:33;;;;;;;2.30;1.80;;;;;;;11.55;62.38;98587.73;220894;1271;22606;-68
2022/05/22 01:14:03;;;;;;;2.30;1.90;;;;;;;11.58;62.64;98582.90;219197;1271;22548;-69
2022/05/22 01:19:17;;;;;;;2.20;2.00;;;;;;;11.59;62.69;98578.52;219617;1271;25452;-69
2022/05/22 01:24:21;;;;;;;2.50;2.20;;;;;;;11.57;62.70;98576.20;219306;1271;23069;-66
2022/05/22 01:29:27;;;;;;;5.20;2.00;;;;;;;11.45;63.12;98574.77;220237;1270;24435;-68
2022/05/22 01:34:33;;;;;;;3.30;2.00;;;;;;;11.29;63.47;98576.33;219619;1271;22628;-69
2022/05/22 01:39:36;;;;;;;2.90;2.40;;;;;;;11.14;63.89;98570.13;220421;1271;22554;-68
2022/05/22 01:45:01;;;;;;;4.70;2.40;;;;;;;11.00;64.25;98571.34;219427;1271;24400;-68
2022/05/22 01:51:04;;;;;;;3.60;2.40;;;;;;;10.85;64.74;98571.70;219564;1270;24293;-68
2022/05/22 01:56:25;;;;;;;4.30;2.40;;;;;;;10.74;65.17;98566.71;219546;1270;25372;-69
2022/05/22 02:01:31;;;;;;;3.50;2.60;;;;;;;10.66;65.32;98560.73;220956;1271;22557;-68
2022/05/22 02:12:22;;;;;;;3.70;2.80;;;;;;;10.48;66.20;98563.13;220450;1270;22534;-69
2022/05/22 02:17:25;;;;;;;5.30;2.80;;;;;;;10.40;66.47;98553.91;220881;1271;22466;-69
2022/05/22 02:22:29;;;;;;;3.20;2.50;;;;;;;10.34;66.86;98549.76;219677;1270;22530;-69
2022/05/22 02:27:32;;;;;;;8.50;3.20;;;;;;;10.30;67.13;98550.95;219670;1270;24254;-69
2022/05/22 02:32:38;;;;;;;3.60;2.70;;;;;;;10.28;67.41;98557.18;219526;1271;25488;-68
2022/05/22 02:37:49;;;;;;;6.10;3.40;;;;;;;10.26;67.75;98554.17;219612;1271;26499;-69
2022/05/22 02:43:26;;;;;;;4.10;2.90;;;;;;;10.21;67.92;98548.56;220764;1271;22532;-69
2022/05/22 02:48:36;;;;;;;5.30;3.10;;;;;;;10.14;68.30;98542.92;220202;1271;22703;-68
2022/05/22 02:53:45;;;;;;;4.10;2.80;;;;;;;10.13;68.51;98549.01;219532;1270;24207;-68
2022/05/22 02:59:08;;;;;;;5.60;3.20;;;;;;;10.19;68.63;98551.53;219639;1271;22552;-69
2022/05/22 03:04:37;;;;;;;4.90;3.10;;;;;;;10.28;68.83;98554.67;219709;1271;24368;-69
2022/05/22 03:09:46;;;;;;;4.20;3.10;;;;;;;10.33;68.62;98551.49;219893;1271;24268;-67
2022/05/22 03:20:16;;;;;;;4.90;2.80;;;;;;;10.38;68.79;98548.33;220176;1268;24299;-69
2022/05/22 03:25:32;;;;;;;4.90;3.10;;;;;;;10.43;68.99;98552.48;219510;1271;22788;-69
2022/05/22 03:30:40;;;;;;;6.50;3.40;;;;;;;10.66;69.11;98548.09;219305;1271;22593;-69
2022/05/22 03:35:47;;;;;;;4.80;2.70;;;;;;;10.97;68.83;98544.54;220723;1270;22542;-68
2022/05/22 03:40:58;;;;;;;4.40;2.70;;;;;;;11.44;68.59;98545.30;219718;1271;22551;-68
2022/05/22 03:46:01;;;;;;;5.20;3.30;;;;;;;11.98;68.03;98548.48;220313;1271;22705;-68
2022/05/22 03:51:10;;;;;;;2.90;2.30;;;;;;;12.47;67.06;98551.92;219617;1271;22612;-68
2022/05/22 03:56:16;;;;;;;3.80;2.60;;;;;;;12.75;66.24;98552.52;219719;1270;23193;-69
2022/05/22 04:01:18;;;;;;;5.40;2.90;;;;;;;12.87;65.70;98558.99;219328;1271;24245;-68
2022/05/22 04:06:27;;;;;;;4.70;2.80;;;;;;;12.92;65.38;98556.98;219691;1271;22547;-68
2022/05/22 04:11:32;;;;;;;3.90;2.60;;;;;;;12.80;65.09;98547.59;220206;1271;22567;-69
2022/05/22 04:16:37;;;;;;;3.70;2.80;;;;;;;12.65;64.95;98546.44;220059;1271;22564;-69
2022/05/22 04:21:45;;;;;;;5.60;2.80;;;;;;;12.54;65.17;98554.40;219695;1268;22547;-69
2022/05/22 04:27:14;;;;;;;5.60;2.60;;;;;;;12.52;65.48;98554.92;219332;1270;22603;-69
2022/05/22 04:32:19;;;;;;;5.20;2.80;;;;;;;12.61;65.69;98555.99;219812;1270;22552;-69
2022/05/22 04:37:25;;;;;;;3.80;2.60;;;;;;;12.86;65.70;98547.63;220306;1270;25859;-68
2022/05/22 04:42:56;;;;;;;3.40;2.10;;;;;;;13.14;65.20;98542.94;219593;1270;22708;-69
2022/05/22 04:47:59;;;;;;;4.40;2.20;;;;;;;13.40;64.59;98539.36;219751;1270;25380;-69
2022/05/22 04:53:07;;;;;;;3.60;2.00;;;;;;;13.51;63.82;98537.45;219903;1270;22538;-69
2022/05/22 04:58:29;;;;;;;2.80;1.80;;;;;;;13.51;63.47;98536.33;219413;1270;25320;-69
2022/05/22 05:03:32;;;;;;;3.60;1.70;;;;;;;13.55;63.30;98543.48;219995;1270;22558;-68
2022/05/22 05:08:35;;;;;;;2.50;1.50;;;;;;;13.59;63.06;98549.81;220153;1270;24115;-68
2022/05/22 05:13:55;;;;;;;4.30;1.60;;;;;;;13.71;63.02;98554.05;219481;1271;24385;-68
2022/05/22 05:19:13;;;;;;;2.20;1.60;;;;;;;13.84;62.70;98557.64;219308;1271;23451;-69
2022/05/22 05:24:22;;;;;;;3.40;1.90;;;;;;;13.94;62.56;98551.58;219408;1271;22948;-68
2022/05/22 05:29:25;;;;;;;4.30;2.00;;;;;;;13.99;62.35;98548.73;219159;1271;24263;-68
2022/05/22 05:34:36;;;;;;;6.20;1.80;;;;;;;13.99;62.00;98550.25;219514;1271;25462;-69
2022/05/22 05:39:54;;;;;;;4.40;2.00;;;;;;;13.97;62.07;98548.21;219398;1270;25399;-70
2022/05/22 05:45:06;;;;;;;5.00;2.60;;;;;;;14.02;62.00;98547.52;219936;1270;24313;-70
2022/05/22 05:50:33;;;;;;;5.80;2.40;;;;;;;14.13;62.17;98548.10;219560;1271;22533;-70
2022/05/22 05:56:13;;;;;;;3.90;2.50;;;;;;;14.17;61.91;98548.76;219760;1271;24022;-68
2022/05/22 06:01:53;;;;;;;6.70;2.30;;;;;;;14.21;61.60;98551.92;219824;1271;24253;-69
2022/05/22 06:06:56;;;;;;;3.20;2.00;;;;;;;14.21;61.55;98544.60;219701;1271;22543;-68
2022/05/22 06:12:13;;;;;;;4.80;2.30;;;;;;;14.22;61.19;98556.64;220005;1271;22700;-69
2022/05/22 06:17:38;;;;;;;3.60;2.10;;;;;;;14.15;60.78;98548.19;219877;1271;22525;-70
2022/05/22 06:22:56;;;;;;;4.30;1.90;;;;;;;14.21;60.77;98555.54;220384;1270;22531;-69
2022/05/22 06:28:33;;;;;;;4.10;1.90;;;;;;;14.39;60.30;98557.77;219384;1269;24094;-69
2022/05/22 06:34:00;;;;;;;3.70;1.80;;;;;;;14.52;59.60;98555.10;220061;1270;22705;-70
2022/05/22 06:45:23;;;;;;;3.70;1.40;;;;;;;14.68;58.24;98556.66;219798;1271;25328;-72
2022/05/22 06:50:35;;;;;;;3.70;1.20;;;;;;;14.89;57.98;98558.67;220279;1268;22487;-69
2022/05/22 06:56:25;;;;;;;2.10;1.00;;;;;;;15.07;57.28;98557.79;219190;1269;24346;-67
2022/05/22 07:02:04;;;;;;;1.70;1.10;;;;;;;15.06;56.33;98558.36;219473;1270;22914;-69
2022/05/22 07:07:47;;;;;;;2.10;1.20;;;;;;;15.11;56.61;98555.09;221323;1270;24340;-68
2022/05/22 07:13:19;;;;;;;4.20;1.30;;;;;;;15.40;56.09;98559.00;219749;1270;22701;-68
2022/05/22 07:18:56;;;;;;;2.30;1.20;;;;;;;15.50;55.56;98559.58;219486;1270;25341;-69
2022/05/22 07:24:37;;;;;;;2.00;1.00;;;;;;;15.75;54.88;98557.23;218972;1273;22608;-69
2022/05/22 07:29:49;;;;;;;2.40;1.10;;;;;;;15.94;54.20;98555.17;219307;1270;25371;-69
2022/05/22 07:35:06;;;;;;;2.10;1.20;;;;;;;16.05;53.51;98552.58;219477;1270;24273;-69
2022/05/22 07:40:43;;;;;;;3.40;1.10;;;;;;;16.05;53.40;98549.38;219305;1270;26393;-69
2022/05/22 07:46:15;;;;;;;1.90;0.90;;;;;;;16.22;52.82;98553.72;219870;1271;22537;-69
2022/05/22 07:51:29;;;;;;;2.20;1.10;;;;;;;16.34;51.88;98550.11;219424;1270;22547;-70
2022/05/22 07:57:04;;;;;;;4.50;1.40;;;;;;;16.49;51.98;98547.94;219380;1270;22558;-69
2022/05/22 08:02:20;;;;;;;2.80;1.00;;;;;;;16.69;52.24;98538.26;219822;1271;22547;-69
2022/05/22 08:07:39;;;;;;;2.60;0.90;;;;;;;16.57;51.31;98537.30;220730;1269;22561;-69
2022/05/22 08:13:13;;;;;;;2.00;0.90;;;;;;;16.54;51.51;98534.05;219600;1271;27252;-69
2022/05/22 08:18:19;;;;;;;2.20;0.80;;;;;;;16.54;50.67;98527.71;219789;1270;22556;-69
2022/05/22 08:23:23;;;;;;;2.20;0.80;;;;;;;16.76;50.55;98524.34;220129;1270;25437;-70
2022/05/22 08:28:29;;;;;;;2.20;1.10;;;;;;;16.65;49.88;98531.49;221140;1271;25332;-69
2022/05/22 08:33:36;;;;;;;2.00;1.00;;;;;;;16.50;49.95;98528.34;219900;1271;25442;-69
2022/05/22 08:38:43;;;;;;;1.10;0.70;;;;;;;16.50;50.05;98522.10;220912;1270;25361;-69
2022/05/22 08:43:56;;;;;;;2.70;1.20;;;;;;;16.33;49.79;98525.89;219723;1270;25320;-68
2022/05/22 08:49:08;;;;;;;3.90;1.20;;;;;;;16.00;50.25;98521.16;219573;1271;25262;-68
2022/05/22 08:54:37;;;;;;;2.30;1.20;;;;;;;15.80;51.14;98522.29;220115;1270;23808;-68
2022/05/22 08:59:55;;;;;;;3.30;1.50;;;;;;;15.89;51.97;98517.17;219824;1271;22586;-69
2022/05/22 09:05:24;;;;;;;7.20;1.60;;;;;;;15.89;52.02;98515.08;219960;1270;22553;-69
2022/05/22 09:10:29;;;;;;;3.70;1.10;;;;;;;15.95;51.97;98504.34;219995;1270;25890;-69
2022/05/22 09:15:48;;;;;;;2.40;1.10;;;;;;;16.29;51.79;98503.98;219667;1270;24395;-69
2022/05/22 09:21:08;;;;;;;3.50;1.10;;;;;;;16.57;50.20;98503.48;219857;1270;22702;-69
2022/05/22 09:26:29;;;;;;;2.10;0.70;;;;;;;16.77;49.80;98497.09;219828;1270;22624;-70
2022/05/22 09:31:53;;;;;;;2.40;0.80;;;;;;;17.09;49.23;98487.64;220362;1271;22528;-70
2022/05/22 09:37:05;;;;;;;1.80;1.00;;;;;;;17.21;47.60;98498.14;220559;1271;22534;-70
2022/05/22 09:42:33;;;;;;;2.00;1.00;;;;;;;17.09;47.10;98502.77;219273;1271;25186;-69
2022/05/22 09:48:10;;;;;;;2.60;0.90;;;;;;;16.86;47.05;98515.80;220354;1270;24159;-69
2022/05/22 09:54:09;;;;;;;1.50;0.60;;;;;;;16.87;47.12;98507.94;221159;1270;25229;-69
2022/05/22 09:59:49;;;;;;;1.50;0.60;;;;;;;17.10;47.19;98508.40;219615;1270;24311;-70
2022/05/22 10:05:07;;;;;;;2.10;0.80;;;;;;;17.12;47.13;98504.89;219771;1271;24274;-69
2022/05/22 10:10:17;;;;;;;2.10;0.90;;;;;;;17.21;47.18;98500.84;221329;1272;22541;-69
2022/05/22 10:15:37;;;;;;;2.30;0.80;;;;;;;17.49;46.21;98499.52;221257;1271;25359;-70
2022/05/22 10:21:23;;;;;;;1.10;0.60;;;;;;;17.71;44.53;98497.09;221152;1271;22704;-68
2022/05/22 10:26:48;;;;;;;1.30;0.50;;;;;;;17.71;44.26;98500.02;222169;1270;24123;-69
2022/05/22 10:32:17;;;;;;;1.00;0.60;;;;;;;17.79;43.87;98504.91;219826;1269;22469;-68
2022/05/22 10:37:50;;;;;;;1.20;1.00;;;;;;;18.12;44.36;98498.73;219901;1271;25444;-69
2022/05/22 10:42:56;;;;;;;2.70;0.70;;;;;;;18.68;44.24;98494.23;220224;1271;25401;-70
2022/05/22 10:48:09;;;;;;;1.80;0.60;;;;;;;18.82;43.25;98499.02;220390;1271;24243;-69
2022/05/22 10:53:47;;;;;;;1.70;0.60;;;;;;;18.63;42.89;98499.52;220006;1270;25316;-69
2022/05/22 10:59:20;;;;;;;1.40;0.80;;;;;;;18.49;42.99;98508.61;219948;1270;22551;-69
2022/05/22 11:04:36;;;;;;;1.40;0.60;;;;;;;18.39;43.04;98503.40;220376;1271;25296;-69
2022/05/22 11:09:52;;;;;;;2.30;1.10;;;;;;;18.46;43.27;98499.19;220315;1270;25347;-69
2022/05/22 11:15:15;;;;;;;1.80;0.80;;;;;;;18.65;42.85;98492.30;219947;1270;24228;-69
2022/05/22 11:20:24;;;;;;;1.20;0.70;;;;;;;18.86;42.08;98484.77;220133;1270;22536;-70
2022/05/22 11:26:02;;;;;;;1.80;0.50;;;;;;;18.62;40.35;98500.06;220671;1270;22693;-68
2022/05/22 11:31:25;;;;;;;0.90;0.60;;;;;;;18.42;40.80;98489.08;220241;1271;22567;-69
2022/05/22 11:36:55;;;;;;;1.40;0.70;;;;;;;18.44;41.11;98491.23;219990;1270;24379;-69
2022/05/22 11:42:33;;;;;;;2.30;0.90;;;;;;;18.39;40.46;98481.16;219963;1271;22705;-69
2022/05/22 11:47:49;;;;;;;1.20;0.50;;;;;;;18.54;40.42;98491.70;219900;1270;22557;-70
2022/05/22 11:53:43;;;;;;;1.90;0.60;;;;;;;18.47;39.95;98489.98;219814;1270;22642;-69
2022/05/22 11:59:25;;;;;;;1.80;0.50;;;;;;;18.13;40.37;98487.61;219930;1271;23161;-69
2022/05/22 12:05:13;;;;;;;1.30;0.50;;;;;;;17.98;40.93;98492.31;220315;1271;22587;-69
2022/05/22 12:10:31;;;;;;;1.00;0.50;;;;;;;18.16;41.46;98488.63;220904;1270;416663;-69
2022/05/22 12:15:59;;;;;;;1.00;0.60;;;;;;;18.33;40.88;98490.14;220390;1270;22528;-70
2022/05/22 12:22:10;;;;;;;1.00;0.80;;;;;;;18.50;40.66;98489.20;219745;1270;22702;-70
2022/05/22 12:27:21;;;;;;;0.50;0.50;;;;;;;18.68;40.22;98486.23;219601;1270;22788;-69
2022/05/22 12:32:26;;;;;;;1.10;0.50;;;;;;;18.55;40.25;98477.23;220536;1270;22556;-70
2022/05/22 12:37:37;;;;;;;1.00;0.60;;;;;;;18.61;40.73;98473.68;220450;1270;22574;-69
2022/05/22 12:42:48;;;;;;;0.80;0.50;;;;;;;18.78;40.56;98469.77;220240;1271;22694;-72
2022/05/22 12:47:55;;;;;;;0.70;0.70;;;;;;;18.88;40.87;98470.94;222208;1270;22563;-69
2022/05/22 12:53:23;;;;;;;1.70;0.40;;;;;;;19.12;40.83;98470.42;220345;1270;25220;-70
2022/05/22 12:58:37;;;;;;;0.60;0.50;;;;;;;19.45;40.51;98459.52;221368;1270;25425;-69
2022/05/22 13:03:41;;;;;;;1.50;0.60;;;;;;;19.72;39.92;98455.50;219810;1271;24247;-69
2022/05/22 13:09:09;;;;;;;0.50;0.40;;;;;;;20.02;39.73;98454.96;220783;1270;24211;-70
2022/05/22 13:14:48;;;;;;;0.50;0.40;;;;;;;20.15;39.35;98457.14;219908;1273;22651;-69
2022/05/22 13:19:56;;;;;;;1.70;0.70;;;;;;;19.94;39.40;98456.91;220586;1270;22991;-69
2022/05/22 13:25:03;;;;;;;1.20;0.70;;;;;;;19.63;39.51;98457.02;219683;1270;25163;-70
2022/05/22 13:30:32;;;;;;;1.80;0.40;;;;;;;19.42;39.81;98446.41;220321;1270;22692;-69
2022/05/22 13:36:05;;;;;;;;;;;;;;;19.19;39.69;98445.77;220075;1271;23937;-69
2022/05/22 13:41:54;;;;;;;0.90;0.60;;;;;;;19.04;39.80;98446.73;219709;1272;22550;-69
2022/05/22 13:47:37;;;;;;;1.80;0.40;;;;;;;18.96;39.51;98445.86;221300;1271;22717;-69
2022/05/22 13:53:17;;;;;;;1.30;0.40;;;;;;;19.10;39.99;98440.36;219728;1272;22566;-69
2022/05/22 13:58:40;;;;;;;1.40;0.80;;;;;;;19.15;40.05;98438.00;219583;1270;22574;-69
2022/05/22 14:04:00;;;;;;;2.40;0.40;;;;;;;19.11;39.98;98441.93;220054;1270;25431;-68
2022/05/22 14:09:05;;;;;;;1.50;0.80;;;;;;;19.06;40.02;98440.11;220029;1270;25313;-68
2022/05/22 14:14:26;;;;;;;1.50;0.70;;;;;;;18.97;40.37;98437.67;220021;1270;22650;-68
2022/05/22 14:19:43;;;;;;;1.00;0.60;;;;;;;18.93;40.67;98432.23;219984;1270;22638;-70
2022/05/22 14:24:54;;;;;;;0.80;0.50;;;;;;;18.81;40.82;98432.84;220485;1271;25366;-70
2022/05/22 14:30:20;;;;;;;0.70;0.60;;;;;;;18.72;41.13;98430.77;220543;1270;25367;-71
2022/05/22 14:36:13;;;;;;;0.70;0.50;;;;;;;18.55;40.50;98434.77;219752;1270;23106;-69
2022/05/22 14:41:20;;;;;;;1.20;0.60;;;;;;;18.40;41.03;98432.85;219271;1272;22535;-69
2022/05/22 14:46:45;;;;;;;1.60;0.60;;;;;;;18.42;41.38;98437.55;219653;1270;24265;-69
2022/05/22 14:52:02;;;;;;;0.90;0.40;;;;;;;18.28;41.56;98442.55;219519;1270;22554;-69
2022/05/22 14:57:13;;;;;;;1.60;0.50;;;;;;;18.18;41.97;98435.30;219970;1271;22537;-68
2022/05/22 15:02:46;;;;;;;1.20;0.40;;;;;;;18.19;42.04;98437.73;220274;1271;22544;-70
2022/05/22 15:07:58;;;;;;;3.90;0.60;;;;;;;18.21;42.09;98433.30;220033;1271;22532;-69
2022/05/22 15:13:12;;;;;;;0.90;0.40;;;;;;;18.42;42.28;98431.05;219700;1270;22869;-69
2022/05/22 15:19:48;;;;;;;0.70;0.40;;;;;;;18.69;41.82;98430.00;219919;1270;24422;-69
2022/05/22 15:29:34;;;;;;;0.60;0.50;;;;;;;18.67;41.71;98425.04;221249;1271;25381;-69
2022/05/22 15:34:36;;;;;;;1.80;0.70;;;;;;;18.59;42.07;98423.42;220362;1271;25340;-69
2022/05/22 15:39:38;;;;;;;0.70;0.50;;;;;;;18.50;41.89;98424.04;219917;1271;26641;-69
2022/05/22 15:44:46;;;;;;;1.10;0.60;;;;;;;18.42;42.25;98414.63;219690;1271;22653;-70
2022/05/22 15:55:39;;;;;;;1.40;0.30;;;;;;;18.38;42.17;98411.49;219769;1270;25251;-68
2022/05/22 16:00:44;;;;;;;1.30;0.60;;;;;;;18.44;42.33;98407.38;219834;1272;23064;-69
2022/05/22 16:05:49;;;;;;;1.70;0.50;;;;;;;18.42;42.37;98405.79;220044;1271;24309;-68
2022/05/22 16:10:52;;;;;;;0.60;0.40;;;;;;;18.24;42.32;98405.56;219838;1273;25352;-69
2022/05/22 16:15:57;;;;;;;1.30;0.60;;;;;;;18.07;42.62;98409.39;220413;1271;22553;-69
2022/05/22 16:21:00;;;;;;;1.00;0.40;;;;;;;17.99;42.97;98404.23;221313;1270;24226;-69
2022/05/22 16:26:07;;;;;;;0.70;0.40;;;;;;;18.06;43.18;98407.52;219616;1270;25399;-69
2022/05/22 16:31:19;;;;;;;0.80;0.50;;;;;;;18.04;43.22;98401.24;220242;1270;24229;-68
2022/05/22 16:36:23;;;;;;;0.60;0.60;;;;;;;18.08;43.17;98409.02;219719;1273;22531;-69
2022/05/22 16:41:28;;;;;;;0.80;0.60;;;;;;;17.86;43.24;98413.29;219734;1271;24380;-71
2022/05/22 16:53:01;;;;;;;0.80;0.60;;;;;;;17.57;43.62;98419.98;220033;1270;26460;-68
2022/05/22 16:58:26;;;;;;;1.30;0.40;;;;;;;16.90;44.47;98426.14;221260;1271;22739;-69
2022/05/22 17:03:38;;;;;;;2.80;0.50;;;;;;;16.72;45.00;98422.44;221026;1271;22593;-69
2022/05/22 17:08:50;;;;;;;2.80;0.70;;;;;;;16.57;45.40;98429.79;219791;1271;25344;-68
2022/05/22 17:14:00;;;;;;;1.00;0.60;;;;;;;16.48;45.67;98429.70;219822;1270;22583;-68
2022/05/22 17:19:03;;;;;;;;;;;;;;;16.40;45.92;98429.68;219715;1270;25335;-68
2022/05/22 17:24:16;;;;;;;0.60;0.50;;;;;;;16.77;46.71;98421.00;220305;1271;24072;-68
2022/05/22 17:29:18;;;;;;;1.50;0.60;;;;;;;18.47;46.66;98424.59;219758;1271;22613;-70
2022/05/22 17:34:21;;;;;;;3.00;0.90;;;;;;;19.41;43.81;98426.77;219621;1270;24227;-68
2022/05/22 17:39:23;;;;;;;1.10;0.80;;;;;;;18.81;42.75;98425.26;221313;1271;23526;-69
2022/05/22 17:44:25;;;;;;;2.60;0.70;;;;;;;18.08;43.27;98426.35;219714;1271;23121;-70
2022/05/22 17:49:30;;;;;;;0.70;0.70;;;;;;;17.48;44.02;98426.62;221403;1271;22635;-70
2022/05/22 17:54:32;;;;;;;0.90;0.70;;;;;;;16.97;44.71;98425.11;221034;1270;22544;-72
2022/05/22 17:59:35;;;;;;;2.40;0.80;;;;;;;16.54;45.40;98427.13;221056;1271;23092;-70
2022/05/22 18:04:37;;;;;;;0.90;0.70;;;;;;;16.25;46.05;98423.55;219660;1272;25307;-70
2022/05/22 18:09:40;;;;;;;2.10;0.90;;;;;;;16.00;46.57;98420.38;219717;1271;25406;-69
2022/05/22 18:20:06;;;;;;;1.10;0.90;;;;;;;15.46;47.95;98419.11;219708;1271;24717;-69
2022/05/22 18:25:29;;;;;;;0.80;0.80;;;;;;;15.26;48.49;98420.79;219974;1270;22576;-70
2022/05/22 18:30:47;;;;;;;1.10;0.70;;;;;;;15.06;48.92;98416.94;220113;1271;22623;-69
2022/05/22 18:36:13;;;;;;;0.80;0.70;;;;;;;14.83;49.42;98420.89;220690;1272;24430;-71
2022/05/22 18:41:24;;;;;;;1.80;0.90;;;;;;;14.58;49.79;98423.65;220881;1271;22698;-70
2022/05/22 18:46:26;;;;;;;1.20;0.60;;;;;;;14.35;50.27;98419.79;219599;1271;23067;-69
2022/05/22 18:51:28;;;;;;;1.50;0.90;;;;;;;14.17;50.76;98427.66;219609;1272;22559;-69
2022/05/22 18:56:30;;;;;;;1.90;1.20;;;;;;;14.01;51.13;98429.06;219826;1271;22569;-69
2022/05/22 19:01:36;;;;;;;1.60;1.00;;;;;;;13.84;51.55;98433.20;219715;1271;22691;-69
2022/05/22 19:06:38;;;;;;;2.40;1.30;;;;;;;13.69;51.87;98431.73;221689;1270;22672;-69
2022/05/22 19:11:41;;;;;;;2.00;1.20;;;;;;;13.56;52.22;98441.35;219769;1271;25351;-70
2022/05/22 19:16:46;;;;;;;3.00;1.30;;;;;;;13.41;52.58;98447.30;219827;1271;25489;-72
2022/05/22 19:21:48;;;;;;;1.80;1.20;;;;;;;13.26;53.01;98452.34;220141;1271;24372;-69
2022/05/22 19:27:00;;;;;;;2.40;1.10;;;;;;;13.13;53.32;98457.41;220247;1268;22584;-69
2022/05/22 19:32:03;;;;;;;2.80;1.90;;;;;;;13.01;53.72;98455.90;220405;1271;22700;-69
2022/05/22 19:37:06;;;;;;;3.20;1.70;;;;;;;12.91;53.98;98454.09;220106;1271;23092;-71
2022/05/22 19:47:34;;;;;;;3.10;1.40;;;;;;;12.63;54.63;98451.77;219864;1270;24630;-70
2022/05/22 19:52:36;;;;;;;2.50;1.80;;;;;;;12.52;55.02;98452.38;220203;1271;25342;-69
2022/05/22 20:03:24;;;;;;;4.00;1.60;;;;;;;12.31;55.76;98460.05;219987;1271;22707;-69
2022/05/22 20:08:48;;;;;;;4.80;2.50;;;;;;;12.22;56.02;98452.83;219854;1271;25387;-68
2022/05/22 20:14:02;;;;;;;5.20;1.80;;;;;;;12.14;56.35;98455.00;220351;1270;22611;-69
2022/05/22 20:19:20;;;;;;;3.40;1.80;;;;;;;12.10;56.66;98459.55;220423;1270;22594;-68
2022/05/22 20:24:22;;;;;;;2.80;2.00;;;;;;;12.06;57.02;98462.35;219925;1270;24281;-69
2022/05/22 20:29:27;;;;;;;4.20;1.80;;;;;;;12.00;57.41;98465.38;219673;1270;24222;-70
2022/05/22 20:34:31;;;;;;;4.10;2.30;;;;;;;11.96;57.84;98465.64;221648;1270;22652;-69
2022/05/22 20:39:34;;;;;;;5.10;2.60;;;;;;;11.93;58.18;98468.64;220463;1271;24337;-69
2022/05/22 20:44:46;;;;;;;3.70;2.60;;;;;;;11.92;58.55;98465.80;219974;1270;24236;-69
2022/05/22 20:49:52;;;;;;;6.30;3.10;;;;;;;11.90;58.53;98468.50;220737;1270;24681;-68
2022/05/22 20:55:00;;;;;;;5.20;3.10;;;;;;;11.88;58.94;98469.07;220054;1271;22569;-69
2022/05/22 21:00:05;;;;;;;5.20;3.30;;;;;;;11.87;59.14;98471.29;220007;1271;22485;-68
2022/05/22 21:05:17;;;;;;;5.50;3.60;;;;;;;11.90;59.39;98473.64;220304;1271;24243;-69
2022/05/22 21:10:32;;;;;;;3.70;3.10;;;;;;;11.92;59.45;98474.35;219578;1271;24669;-69
2022/05/22 21:15:44;;;;;;;4.20;2.50;;;;;;;11.95;59.49;98472.64;219955;1270;22948;-70
2022/05/22 21:20:47;;;;;;;2.50;2.30;;;;;;;11.99;59.53;98472.02;220810;1271;25317;-68
2022/05/22 21:31:34;;;;;;;4.00;2.40;;;;;;;12.07;59.62;98471.50;219395;1271;22554;-68
2022/05/22 21:36:39;;;;;;;3.90;2.50;;;;;;;12.08;59.61;98476.09;219584;1271;25008;-69
2022/05/22 21:41:45;;;;;;;4.90;2.90;;;;;;;12.10;59.65;98471.52;219474;1271;22549;-69
2022/05/22 21:46:48;;;;;;;3.70;2.50;;;;;;;12.15;59.93;98476.63;221414;1271;24287;-69
2022/05/22 21:52:18;;;;;;;2.90;2.40;;;;;;;12.18;59.97;98479.40;220249;1270;22580;-68
2022/05/22 21:57:23;;;;;;;2.80;2.10;;;;;;;12.21;59.87;98476.27;219731;1270;24835;-68
2022/05/22 22:02:41;;;;;;;6.20;2.70;;;;;;;12.25;59.94;98475.15;220777;1270;24343;-68
2022/05/22 22:07:57;;;;;;;4.20;2.60;;;;;;;12.29;60.12;98469.36;219500;1270;25253;-69
2022/05/22 22:13:00;;;;;;;4.70;2.80;;;;;;;12.30;60.35;98461.29;219671;1271;25261;-68
2022/05/22 22:18:03;;;;;;;3.90;2.60;;;;;;;12.30;60.19;98459.39;221381;1270;22576;-68
2022/05/22 22:23:12;;;;;;;4.90;2.90;;;;;;;12.29;60.29;98461.84;220490;1271;22557;-68
2022/05/22 22:28:14;;;;;;;3.30;2.90;;;;;;;12.23;60.48;98461.23;219606;1270;25511;-68
2022/05/22 22:33:17;;;;;;;4.70;3.30;;;;;;;12.12;60.78;98455.58;219744;1270;22559;-68
2022/05/22 22:38:21;;;;;;;4.80;3.50;;;;;;;12.00;61.08;98452.96;219738;1270;26044;-68
2022/05/22 22:43:30;;;;;;;5.50;3.10;;;;;;;11.85;61.61;98453.14;219804;1270;22656;-68
2022/05/22 22:48:43;;;;;;;4.20;3.20;;;;;;;11.69;61.76;98451.25;220180;1270;23537;-68
2022/05/22 22:59:24;;;;;;;5.30;3.30;;;;;;;11.48;62.49;98451.01;220066;1270;22869;-68
2022/05/22 23:04:34;;;;;;;5.00;3.40;;;;;;;11.44;62.74;98452.79;219672;1271;24132;-69
2022/05/22 23:09:51;;;;;;;3.70;3.20;;;;;;;11.45;62.94;98444.41;219871;1270;25423;-67
2022/05/22 23:14:58;;;;;;;4.20;2.90;;;;;;;11.50;63.02;98442.02;220007;1270;22651;-68
2022/05/22 23:20:15;;;;;;;4.70;3.00;;;;;;;11.53;63.33;98439.98;220229;1271;22573;-69
2022/05/22 23:25:26;;;;;;;5.20;2.90;;;;;;;11.50;63.20;98444.77;220716;1271;22546;-68
2022/05/22 23:30:38;;;;;;;3.80;3.00;;;;;;;11.45;63.07;98439.35;219925;1271;25455;-68
2022/05/22 23:35:40;;;;;;;4.20;2.90;;;;;;;11.37;63.33;98439.93;219822;1270;22644;-68
2022/05/22 23:40:49;;;;;;;3.50;2.90;;;;;;;11.26;63.40;98434.38;220221;1271;22580;-68
2022/05/22 23:45:51;;;;;;;4.30;2.40;;;;;;;11.11;63.88;98430.29;219720;1270;22554;-67
2022/05/22 23:51:02;;;;;;;3.10;2.50;;;;;;;10.96;63.93;98430.00;221740;1271;22583;-68
2022/05/22 23:56:05;;;;;;;4.00;2.90;;;;;;;10.83;64.09;98430.86;220131;1271;22559;-68
